createdAt,value
2016-11-16T00:01:08.468Z,0
2016-11-16T00:02:17.096Z,0
2016-11-16T00:03:25.740Z,0
2016-11-16T00:04:34.357Z,0
2016-11-16T00:05:42.978Z,0
2016-11-16T00:06:51.903Z,0
2016-11-16T00:08:00.551Z,0
2016-11-16T00:09:09.184Z,0
2016-11-16T00:10:17.813Z,0
2016-11-16T00:11:26.419Z,0
2016-11-16T00:12:35.105Z,0
2016-11-16T00:13:43.749Z,0
2016-11-16T00:14:52.419Z,0
2016-11-16T00:16:01.049Z,0
2016-11-16T00:17:09.712Z,0
2016-11-16T00:18:18.343Z,0
2016-11-16T00:19:26.988Z,0
2016-11-16T00:20:35.634Z,0
2016-11-16T00:21:44.574Z,0
2016-11-16T00:22:53.229Z,0
2016-11-16T00:24:01.844Z,0
2016-11-16T00:25:10.464Z,0
2016-11-16T00:26:19.090Z,0
2016-11-16T00:27:27.736Z,0
2016-11-16T00:28:36.399Z,0
2016-11-16T00:29:45.045Z,0
2016-11-16T00:30:53.673Z,0
2016-11-16T00:32:02.291Z,0
2016-11-16T00:33:10.942Z,0
2016-11-16T00:34:19.557Z,0
2016-11-16T00:35:28.196Z,0
2016-11-16T00:36:36.847Z,0
2016-11-16T00:37:45.500Z,0
2016-11-16T00:38:54.118Z,0
2016-11-16T00:40:02.743Z,0
2016-11-16T00:41:11.362Z,0
2016-11-16T00:42:19.956Z,0
2016-11-16T00:43:28.576Z,0
2016-11-16T00:44:37.241Z,0
2016-11-16T00:45:45.868Z,0
2016-11-16T00:46:54.492Z,0
2016-11-16T00:48:03.133Z,0
2016-11-16T00:49:11.757Z,0
2016-11-16T00:50:20.384Z,0
2016-11-16T00:51:29.030Z,0
2016-11-16T00:52:37.671Z,0
2016-11-16T00:53:46.293Z,0
2016-11-16T00:54:54.931Z,0
2016-11-16T00:56:03.589Z,0
2016-11-16T00:57:12.210Z,0
2016-11-16T00:58:20.826Z,0
2016-11-16T00:59:29.448Z,0
2016-11-16T01:00:38.047Z,0
2016-11-16T01:01:46.665Z,0
2016-11-16T01:02:55.308Z,0
2016-11-16T01:04:03.937Z,0
2016-11-16T01:05:12.580Z,0
2016-11-16T01:06:21.204Z,0
2016-11-16T01:07:29.825Z,0
2016-11-16T01:08:38.467Z,0
2016-11-16T01:09:47.092Z,0
2016-11-16T01:10:55.714Z,0
2016-11-16T01:12:04.335Z,0
2016-11-16T01:13:12.956Z,0
2016-11-16T01:14:21.595Z,0
2016-11-16T01:15:30.220Z,0
2016-11-16T01:16:38.858Z,0
2016-11-16T01:17:47.503Z,0
2016-11-16T01:18:56.155Z,0
2016-11-16T01:20:04.783Z,0
2016-11-16T01:21:13.433Z,0
2016-11-16T01:22:22.063Z,0
2016-11-16T01:23:30.696Z,0
2016-11-16T01:24:39.671Z,0
2016-11-16T01:25:48.313Z,0
2016-11-16T01:26:56.935Z,0
2016-11-16T01:28:05.548Z,0
2016-11-16T01:29:14.169Z,0
2016-11-16T01:30:22.812Z,0
2016-11-16T01:31:31.444Z,0
2016-11-16T01:32:40.086Z,0
2016-11-16T01:33:48.712Z,0
2016-11-16T01:34:57.356Z,0
2016-11-16T01:36:06.004Z,0
2016-11-16T01:37:14.620Z,0
2016-11-16T01:38:23.246Z,0
2016-11-16T01:39:31.868Z,0
2016-11-16T01:40:40.512Z,0
2016-11-16T01:41:49.133Z,0
2016-11-16T01:42:57.780Z,0
2016-11-16T01:44:06.393Z,0
2016-11-16T01:45:15.017Z,0
2016-11-16T01:46:23.643Z,0
2016-11-16T01:47:32.281Z,0
2016-11-16T01:48:40.906Z,0
2016-11-16T01:49:49.549Z,0
2016-11-16T01:50:58.175Z,0
2016-11-16T01:52:06.805Z,0
2016-11-16T01:53:15.470Z,0
2016-11-16T01:54:24.088Z,0
2016-11-16T01:55:32.712Z,0
2016-11-16T01:56:41.351Z,0
2016-11-16T01:57:49.968Z,0
2016-11-16T01:58:58.626Z,0
2016-11-16T02:00:07.268Z,0
2016-11-16T02:01:15.916Z,0
2016-11-16T02:02:24.557Z,0
2016-11-16T02:03:33.166Z,0
2016-11-16T02:04:41.802Z,0
2016-11-16T02:05:50.398Z,0
2016-11-16T02:06:59.024Z,0
2016-11-16T02:08:07.659Z,0
2016-11-16T02:09:16.292Z,0
2016-11-16T02:10:24.943Z,0
2016-11-16T02:11:33.554Z,0
2016-11-16T02:12:42.158Z,0
2016-11-16T02:13:50.772Z,0
2016-11-16T02:14:59.367Z,0
2016-11-16T02:16:08.006Z,0
2016-11-16T02:17:16.641Z,0
2016-11-16T02:18:25.282Z,0
2016-11-16T02:19:33.884Z,0
2016-11-16T02:20:42.502Z,0
2016-11-16T02:21:51.148Z,0
2016-11-16T02:22:59.816Z,0
2016-11-16T02:24:08.436Z,0
2016-11-16T02:25:17.075Z,0
2016-11-16T02:26:25.704Z,0
2016-11-16T02:27:34.329Z,0
2016-11-16T02:28:43.267Z,0
2016-11-16T02:29:51.889Z,0
2016-11-16T02:31:00.520Z,0
2016-11-16T02:32:09.156Z,0
2016-11-16T02:33:17.783Z,0
2016-11-16T02:34:26.382Z,0
2016-11-16T02:35:35.014Z,0
2016-11-16T02:36:43.647Z,0
2016-11-16T02:37:52.564Z,0
2016-11-16T02:39:01.185Z,0
2016-11-16T02:40:09.838Z,0
2016-11-16T02:41:18.498Z,0
2016-11-16T02:42:27.102Z,0
2016-11-16T02:43:35.748Z,0
2016-11-16T02:44:44.395Z,0
2016-11-16T02:45:53.016Z,0
2016-11-16T02:47:01.612Z,0
2016-11-16T02:48:10.278Z,0
2016-11-16T02:49:18.876Z,0
2016-11-16T02:50:27.500Z,0
2016-11-16T02:51:36.120Z,0
2016-11-16T02:52:44.788Z,0
2016-11-16T02:53:53.414Z,0
2016-11-16T02:55:02.033Z,0
2016-11-16T02:56:10.674Z,0
2016-11-16T02:57:19.302Z,0
2016-11-16T02:58:27.936Z,0
2016-11-16T02:59:36.556Z,0
2016-11-16T03:00:45.184Z,0
2016-11-16T03:01:53.804Z,0
2016-11-16T03:03:02.418Z,0
2016-11-16T03:04:11.051Z,0
2016-11-16T03:05:19.667Z,0
2016-11-16T03:06:28.263Z,0
2016-11-16T03:07:36.888Z,0
2016-11-16T03:08:45.536Z,0
2016-11-16T03:09:54.155Z,0
2016-11-16T03:11:02.797Z,0
2016-11-16T03:12:11.447Z,0
2016-11-16T03:13:20.080Z,0
2016-11-16T03:14:28.709Z,0
2016-11-16T03:15:37.357Z,0
2016-11-16T03:16:45.998Z,0
2016-11-16T03:17:54.625Z,0
2016-11-16T03:19:03.269Z,0
2016-11-16T03:20:11.894Z,0
2016-11-16T03:21:20.539Z,0
2016-11-16T03:22:29.161Z,0
2016-11-16T03:23:37.782Z,0
2016-11-16T03:24:46.422Z,0
2016-11-16T03:25:55.041Z,0
2016-11-16T03:27:03.669Z,0
2016-11-16T03:28:12.290Z,0
2016-11-16T03:29:20.912Z,0
2016-11-16T03:30:29.561Z,0
2016-11-16T03:31:38.195Z,0
2016-11-16T03:32:46.822Z,0
2016-11-16T03:33:55.441Z,0
2016-11-16T03:35:04.065Z,0
2016-11-16T03:36:12.687Z,0
2016-11-16T03:37:21.328Z,0
2016-11-16T03:38:29.950Z,0
2016-11-16T03:39:38.571Z,0
2016-11-16T03:40:47.167Z,0
2016-11-16T03:41:55.810Z,0
2016-11-16T03:43:04.434Z,0
2016-11-16T03:44:13.073Z,0
2016-11-16T03:45:21.704Z,0
2016-11-16T03:46:30.323Z,0
2016-11-16T03:47:38.994Z,0
2016-11-16T03:48:47.640Z,0
2016-11-16T03:49:56.260Z,0
2016-11-16T03:51:04.906Z,0
2016-11-16T03:52:13.845Z,0
2016-11-16T03:53:22.796Z,0
2016-11-16T03:54:31.419Z,0
2016-11-16T03:55:40.023Z,0
2016-11-16T03:56:48.942Z,0
2016-11-16T03:57:57.538Z,0
2016-11-16T03:59:06.158Z,0
2016-11-16T04:00:14.805Z,0
2016-11-16T04:01:23.427Z,0
2016-11-16T04:02:32.064Z,0
2016-11-16T04:03:40.664Z,0
2016-11-16T04:04:49.285Z,0
2016-11-16T04:05:57.881Z,0
2016-11-16T04:07:06.525Z,0
2016-11-16T04:08:15.154Z,0
2016-11-16T04:09:23.800Z,0
2016-11-16T04:10:32.445Z,0
2016-11-16T04:11:41.079Z,0
2016-11-16T04:12:49.700Z,0
2016-11-16T04:13:58.376Z,0
2016-11-16T04:15:07.006Z,0
2016-11-16T04:16:15.643Z,0
2016-11-16T04:17:24.268Z,0
2016-11-16T04:18:32.886Z,0
2016-11-16T04:19:41.520Z,0
2016-11-16T04:20:50.162Z,0
2016-11-16T04:21:58.809Z,0
2016-11-16T04:23:07.423Z,0
2016-11-16T04:24:16.027Z,0
2016-11-16T04:25:24.659Z,0
2016-11-16T04:26:33.292Z,0
2016-11-16T04:27:41.958Z,0
2016-11-16T04:28:50.599Z,0
2016-11-16T04:29:59.204Z,0
2016-11-16T04:31:07.851Z,0
2016-11-16T04:32:16.500Z,0
2016-11-16T04:33:25.156Z,0
2016-11-16T04:34:33.789Z,0
2016-11-16T04:35:42.435Z,0
2016-11-16T04:36:51.103Z,0
2016-11-16T04:38:00.079Z,0
2016-11-16T04:39:08.724Z,0
2016-11-16T04:40:17.388Z,0
2016-11-16T04:41:26.029Z,0
2016-11-16T04:42:34.665Z,0
2016-11-16T04:43:43.284Z,0
2016-11-16T04:44:51.930Z,0
2016-11-16T04:46:00.564Z,0
2016-11-16T04:47:09.173Z,0
2016-11-16T04:48:17.789Z,0
2016-11-16T04:49:26.402Z,0
2016-11-16T04:50:35.036Z,0
2016-11-16T04:51:43.652Z,0
2016-11-16T04:52:52.248Z,0
2016-11-16T04:54:00.870Z,0
2016-11-16T04:55:09.497Z,0
2016-11-16T04:56:18.112Z,0
2016-11-16T04:57:26.740Z,0
2016-11-16T04:58:35.382Z,0
2016-11-16T04:59:44.005Z,0
2016-11-16T05:00:52.638Z,0
2016-11-16T05:02:01.289Z,0
2016-11-16T05:03:09.918Z,0
2016-11-16T05:04:18.534Z,0
2016-11-16T05:05:27.149Z,0
2016-11-16T05:06:35.774Z,0
2016-11-16T05:07:44.398Z,0
2016-11-16T05:08:53.026Z,0
2016-11-16T05:10:01.640Z,0
2016-11-16T05:11:10.265Z,0
2016-11-16T05:12:18.889Z,0
2016-11-16T05:13:27.534Z,0
2016-11-16T05:14:36.180Z,0
2016-11-16T05:15:44.814Z,0
2016-11-16T05:16:53.443Z,0
2016-11-16T05:18:02.062Z,0
2016-11-16T05:19:10.677Z,0
2016-11-16T05:20:19.310Z,0
2016-11-16T05:21:27.955Z,0
2016-11-16T05:22:36.553Z,0
2016-11-16T05:23:45.173Z,4
2016-11-16T05:24:53.819Z,4
2016-11-16T05:26:02.483Z,4
2016-11-16T05:27:11.108Z,4
2016-11-16T05:28:19.733Z,4
2016-11-16T05:29:28.350Z,4
2016-11-16T05:30:36.968Z,4
2016-11-16T05:31:45.614Z,4
2016-11-16T05:32:54.299Z,4
2016-11-16T05:34:02.952Z,4
2016-11-16T05:35:11.583Z,4
2016-11-16T05:36:20.202Z,4
2016-11-16T05:37:28.823Z,4
2016-11-16T05:38:37.419Z,4
2016-11-16T05:39:46.045Z,4
2016-11-16T05:40:54.684Z,4
2016-11-16T05:42:03.330Z,4
2016-11-16T05:43:11.961Z,4
2016-11-16T05:44:20.582Z,4
2016-11-16T05:45:29.201Z,4
2016-11-16T05:46:37.818Z,4
2016-11-16T05:47:46.457Z,4
2016-11-16T05:48:55.068Z,4
2016-11-16T05:50:03.704Z,4
2016-11-16T05:51:12.350Z,4
2016-11-16T05:52:20.973Z,4
2016-11-16T05:53:29.603Z,4
2016-11-16T05:54:38.238Z,4
2016-11-16T05:55:46.867Z,4
2016-11-16T05:56:55.514Z,4
2016-11-16T05:58:04.130Z,4
2016-11-16T05:59:12.743Z,8
2016-11-16T06:00:21.379Z,4
2016-11-16T06:01:30.027Z,8
2016-11-16T06:02:38.661Z,8
2016-11-16T06:03:47.586Z,8
2016-11-16T06:04:56.209Z,8
2016-11-16T06:06:04.836Z,12
2016-11-16T06:07:13.486Z,16
2016-11-16T06:08:22.396Z,20
2016-11-16T06:09:31.017Z,20
2016-11-16T06:10:39.635Z,28
2016-11-16T06:11:48.238Z,32
2016-11-16T06:12:56.880Z,32
2016-11-16T06:14:05.507Z,40
2016-11-16T06:15:14.123Z,44
2016-11-16T06:16:22.743Z,52
2016-11-16T06:17:31.672Z,56
2016-11-16T06:18:40.294Z,64
2016-11-16T06:19:49.209Z,72
2016-11-16T06:20:57.837Z,84
2016-11-16T06:22:06.492Z,100
2016-11-16T06:23:15.143Z,124
2016-11-16T06:24:23.785Z,136
2016-11-16T06:25:32.413Z,164
2016-11-16T06:26:41.035Z,180
2016-11-16T06:27:49.664Z,208
2016-11-16T06:28:58.303Z,224
2016-11-16T06:30:06.927Z,248
2016-11-16T06:31:15.574Z,264
2016-11-16T06:32:24.191Z,276
2016-11-16T06:33:32.804Z,292
2016-11-16T06:34:41.458Z,324
2016-11-16T06:35:50.085Z,364
2016-11-16T06:36:58.729Z,392
2016-11-16T06:38:07.369Z,428
2016-11-16T06:39:16.010Z,472
2016-11-16T06:40:24.668Z,520
2016-11-16T06:41:33.332Z,588
2016-11-16T06:42:41.961Z,660
2016-11-16T06:43:50.583Z,728
2016-11-16T06:44:59.228Z,780
2016-11-16T06:46:07.875Z,844
2016-11-16T06:47:16.508Z,876
2016-11-16T06:48:25.142Z,948
2016-11-16T06:49:33.812Z,1060
2016-11-16T06:50:42.459Z,1112
2016-11-16T06:51:51.100Z,1132
2016-11-16T06:52:59.697Z,1176
2016-11-16T06:54:08.293Z,1188
2016-11-16T06:55:16.911Z,1144
2016-11-16T06:56:25.510Z,1128
2016-11-16T06:57:34.141Z,1184
2016-11-16T06:58:42.783Z,1184
2016-11-16T06:59:51.399Z,1176
2016-11-16T07:01:00.020Z,1192
2016-11-16T07:02:08.663Z,1232
2016-11-16T07:03:17.263Z,1284
2016-11-16T07:04:25.883Z,1336
2016-11-16T07:05:34.483Z,1376
2016-11-16T07:06:43.106Z,1340
2016-11-16T07:07:51.751Z,1320
2016-11-16T07:09:00.417Z,1304
2016-11-16T07:10:09.020Z,1284
2016-11-16T07:11:17.635Z,1268
2016-11-16T07:12:26.260Z,1268
2016-11-16T07:13:34.895Z,1356
2016-11-16T07:14:43.528Z,1428
2016-11-16T07:15:52.170Z,1360
2016-11-16T07:17:00.813Z,1304
2016-11-16T07:18:09.441Z,1288
2016-11-16T07:19:18.084Z,1344
2016-11-16T07:20:26.704Z,1388
2016-11-16T07:21:35.331Z,1468
2016-11-16T07:22:43.964Z,1544
2016-11-16T07:23:52.572Z,1620
2016-11-16T07:25:01.239Z,1792
2016-11-16T07:26:09.855Z,1880
2016-11-16T07:27:18.519Z,1944
2016-11-16T07:28:27.156Z,1972
2016-11-16T07:29:35.780Z,1940
2016-11-16T07:30:44.419Z,1912
2016-11-16T07:31:53.040Z,1932
2016-11-16T07:33:01.666Z,2080
2016-11-16T07:34:10.313Z,1992
2016-11-16T07:35:18.976Z,1868
2016-11-16T07:36:27.608Z,1872
2016-11-16T07:37:36.252Z,1900
2016-11-16T07:38:44.893Z,1852
2016-11-16T07:39:53.535Z,1984
2016-11-16T07:41:02.212Z,2124
2016-11-16T07:42:10.831Z,2200
2016-11-16T07:43:19.752Z,2480
2016-11-16T07:44:28.373Z,2744
2016-11-16T07:45:36.996Z,2748
2016-11-16T07:46:45.616Z,2640
2016-11-16T07:47:54.238Z,2976
2016-11-16T07:49:02.863Z,2936
2016-11-16T07:50:11.480Z,3192
2016-11-16T07:51:20.402Z,3016
2016-11-16T07:52:29.021Z,3240
2016-11-16T07:53:37.680Z,3180
2016-11-16T07:54:46.305Z,3492
2016-11-16T07:55:54.909Z,3484
2016-11-16T07:57:03.507Z,3480
2016-11-16T07:58:12.130Z,3592
2016-11-16T07:59:20.752Z,3660
2016-11-16T08:00:29.396Z,3744
2016-11-16T08:01:38.015Z,3756
2016-11-16T08:02:46.636Z,3812
2016-11-16T08:03:55.265Z,3992
2016-11-16T08:05:03.908Z,4152
2016-11-16T08:06:12.524Z,4296
2016-11-16T08:07:21.150Z,4432
2016-11-16T08:08:29.792Z,4376
2016-11-16T08:09:38.413Z,4304
2016-11-16T08:10:47.034Z,3912
2016-11-16T08:11:55.661Z,3588
2016-11-16T08:13:04.593Z,3608
2016-11-16T08:14:13.223Z,4040
2016-11-16T08:15:21.848Z,3660
2016-11-16T08:16:30.495Z,3476
2016-11-16T08:17:39.107Z,3380
2016-11-16T08:18:47.782Z,3672
2016-11-16T08:19:56.408Z,3560
2016-11-16T08:21:05.050Z,3512
2016-11-16T08:22:13.669Z,3516
2016-11-16T08:23:22.309Z,3500
2016-11-16T08:24:30.943Z,3536
2016-11-16T08:25:39.638Z,3740
2016-11-16T08:26:48.254Z,3708
2016-11-16T08:27:56.881Z,3436
2016-11-16T08:29:05.518Z,3360
2016-11-16T08:30:14.147Z,3464
2016-11-16T08:31:22.765Z,3688
2016-11-16T08:32:31.385Z,3644
2016-11-16T08:33:40.012Z,3508
2016-11-16T08:34:48.677Z,3700
2016-11-16T08:35:57.278Z,3600
2016-11-16T08:37:05.917Z,3992
2016-11-16T08:38:14.546Z,4076
2016-11-16T08:39:23.184Z,3844
2016-11-16T08:40:31.807Z,3712
2016-11-16T08:41:40.413Z,4044
2016-11-16T08:42:49.068Z,4204
2016-11-16T08:43:58.017Z,4244
2016-11-16T08:45:06.645Z,4360
2016-11-16T08:46:15.264Z,4716
2016-11-16T08:47:23.891Z,5116
2016-11-16T08:48:32.532Z,5152
2016-11-16T08:49:41.131Z,5564
2016-11-16T08:50:49.770Z,4820
2016-11-16T08:51:58.397Z,4528
2016-11-16T08:53:07.020Z,5300
2016-11-16T08:54:15.665Z,5312
2016-11-16T08:55:24.288Z,5632
2016-11-16T08:56:32.934Z,7384
2016-11-16T08:57:41.581Z,7252
2016-11-16T08:58:50.200Z,6680
2016-11-16T08:59:58.839Z,6768
2016-11-16T09:01:07.488Z,6604
2016-11-16T09:02:16.113Z,5844
2016-11-16T09:03:24.752Z,5732
2016-11-16T09:04:33.379Z,5844
2016-11-16T09:05:42.065Z,5672
2016-11-16T09:06:50.694Z,5276
2016-11-16T09:07:59.318Z,5100
2016-11-16T09:09:07.916Z,4804
2016-11-16T09:10:16.548Z,4196
2016-11-16T09:11:25.170Z,4132
2016-11-16T09:12:33.804Z,4060
2016-11-16T09:13:42.445Z,3948
2016-11-16T09:14:51.074Z,3800
2016-11-16T09:15:59.712Z,4164
2016-11-16T09:17:08.659Z,4828
2016-11-16T09:18:17.260Z,5848
2016-11-16T09:19:25.877Z,6624
2016-11-16T09:20:34.500Z,7320
2016-11-16T09:21:43.097Z,7404
2016-11-16T09:22:51.714Z,6124
2016-11-16T09:24:00.335Z,4808
2016-11-16T09:25:08.955Z,3752
2016-11-16T09:26:17.577Z,3764
2016-11-16T09:27:26.199Z,3948
2016-11-16T09:28:34.811Z,3692
2016-11-16T09:29:43.444Z,3604
2016-11-16T09:30:52.079Z,3760
2016-11-16T09:32:00.707Z,3928
2016-11-16T09:33:09.334Z,3408
2016-11-16T09:34:17.975Z,3184
2016-11-16T09:35:26.576Z,3336
2016-11-16T09:36:35.194Z,3296
2016-11-16T09:37:43.886Z,3708
2016-11-16T09:38:52.513Z,3296
2016-11-16T09:40:01.137Z,3176
2016-11-16T09:41:09.751Z,3272
2016-11-16T09:42:18.390Z,3612
2016-11-16T09:43:27.015Z,4192
2016-11-16T09:44:35.620Z,3684
2016-11-16T09:45:44.261Z,3496
2016-11-16T09:46:52.904Z,4564
2016-11-16T09:48:01.533Z,4644
2016-11-16T09:49:10.167Z,4252
2016-11-16T09:50:18.795Z,4312
2016-11-16T09:51:27.416Z,4264
2016-11-16T09:52:36.042Z,3808
2016-11-16T09:53:44.700Z,4404
2016-11-16T09:54:53.352Z,4676
2016-11-16T09:56:02.029Z,4412
2016-11-16T09:57:10.677Z,4124
2016-11-16T09:58:19.347Z,3980
2016-11-16T09:59:27.985Z,3600
2016-11-16T10:00:36.611Z,3608
2016-11-16T10:01:45.231Z,3764
2016-11-16T10:02:53.856Z,3396
2016-11-16T10:04:02.482Z,3612
2016-11-16T10:05:11.424Z,4300
2016-11-16T10:06:20.045Z,4616
2016-11-16T10:07:28.719Z,4828
2016-11-16T10:08:37.792Z,5652
2016-11-16T10:09:46.446Z,5916
2016-11-16T10:10:55.092Z,5828
2016-11-16T10:12:03.721Z,4836
2016-11-16T10:13:12.373Z,5412
2016-11-16T10:14:21.005Z,5936
2016-11-16T10:15:29.634Z,6540
2016-11-16T10:16:38.460Z,6912
2016-11-16T10:17:47.132Z,6616
2016-11-16T10:18:55.772Z,7088
2016-11-16T10:20:04.396Z,8140
2016-11-16T10:21:13.020Z,9136
2016-11-16T10:22:21.661Z,8820
2016-11-16T10:23:30.282Z,7608
2016-11-16T10:24:38.928Z,6484
2016-11-16T10:25:47.553Z,8480
2016-11-16T10:26:56.200Z,8552
2016-11-16T10:28:04.820Z,7636
2016-11-16T10:29:13.442Z,7044
2016-11-16T10:30:22.079Z,7996
2016-11-16T10:31:30.709Z,6952
2016-11-16T10:32:39.965Z,7112
2016-11-16T10:33:49.226Z,9872
2016-11-16T10:34:57.867Z,11152
2016-11-16T10:36:06.496Z,10780
2016-11-16T10:37:15.132Z,9972
2016-11-16T10:38:23.757Z,12872
2016-11-16T10:39:32.377Z,12752
2016-11-16T10:40:41.002Z,10876
2016-11-16T10:41:49.645Z,10392
2016-11-16T10:42:58.290Z,10136
2016-11-16T10:44:06.912Z,11792
2016-11-16T10:45:15.538Z,10232
2016-11-16T10:46:24.188Z,11172
2016-11-16T10:47:32.868Z,10032
2016-11-16T10:48:41.502Z,10276
2016-11-16T10:49:50.140Z,10104
2016-11-16T10:50:58.764Z,9244
2016-11-16T10:52:07.438Z,7508
2016-11-16T10:53:16.056Z,6888
2016-11-16T10:54:24.683Z,6736
2016-11-16T10:55:33.348Z,6972
2016-11-16T10:56:41.977Z,7056
2016-11-16T10:57:50.609Z,6024
2016-11-16T10:58:59.243Z,5652
2016-11-16T11:00:07.888Z,7328
2016-11-16T11:01:16.533Z,6944
2016-11-16T11:02:25.154Z,7448
2016-11-16T11:03:33.771Z,7280
2016-11-16T11:04:42.422Z,8100
2016-11-16T11:05:51.056Z,8216
2016-11-16T11:06:59.684Z,8476
2016-11-16T11:08:08.309Z,7468
2016-11-16T11:09:16.970Z,7356
2016-11-16T11:10:25.602Z,6912
2016-11-16T11:11:34.243Z,7840
2016-11-16T11:12:42.882Z,7480
2016-11-16T11:13:51.517Z,7736
2016-11-16T11:15:00.163Z,8572
2016-11-16T11:16:08.782Z,7220
2016-11-16T11:17:17.431Z,6512
2016-11-16T11:18:26.050Z,7124
2016-11-16T11:19:34.692Z,6600
2016-11-16T11:20:43.317Z,5928
2016-11-16T11:21:51.959Z,7056
2016-11-16T11:23:00.585Z,6144
2016-11-16T11:24:09.206Z,5636
2016-11-16T11:25:17.869Z,6432
2016-11-16T11:26:26.497Z,6908
2016-11-16T11:27:35.114Z,6812
2016-11-16T11:28:43.736Z,6628
2016-11-16T11:29:52.357Z,7932
2016-11-16T11:31:01.001Z,7540
2016-11-16T11:32:09.631Z,6104
2016-11-16T11:33:18.288Z,5856
2016-11-16T11:34:26.917Z,6592
2016-11-16T11:35:35.534Z,6132
2016-11-16T11:36:44.163Z,5696
2016-11-16T11:37:52.797Z,5764
2016-11-16T11:39:01.426Z,5512
2016-11-16T11:40:10.049Z,5540
2016-11-16T11:41:18.668Z,5128
2016-11-16T11:42:27.274Z,5408
2016-11-16T11:43:35.885Z,5416
2016-11-16T11:44:44.510Z,5676
2016-11-16T11:45:53.146Z,5896
2016-11-16T11:47:01.780Z,6024
2016-11-16T11:48:10.445Z,5296
2016-11-16T11:49:19.066Z,4848
2016-11-16T11:50:27.691Z,4732
2016-11-16T11:51:36.308Z,4432
2016-11-16T11:52:44.937Z,4660
2016-11-16T11:53:53.575Z,3920
2016-11-16T11:55:02.172Z,4376
2016-11-16T11:56:11.322Z,4412
2016-11-16T11:57:19.939Z,3792
2016-11-16T11:58:28.553Z,4044
2016-11-16T11:59:37.202Z,3868
2016-11-16T12:00:45.803Z,3776
2016-11-16T12:01:54.444Z,4076
2016-11-16T12:03:03.049Z,4552
2016-11-16T12:04:12.389Z,4800
2016-11-16T12:05:21.037Z,5004
2016-11-16T12:06:29.663Z,5252
2016-11-16T12:07:38.285Z,5372
2016-11-16T12:08:46.917Z,5232
2016-11-16T12:09:55.542Z,4916
2016-11-16T12:11:04.168Z,5196
2016-11-16T12:12:12.789Z,6168
2016-11-16T12:13:21.414Z,7644
2016-11-16T12:14:30.056Z,8340
2016-11-16T12:15:38.681Z,8704
2016-11-16T12:16:47.328Z,8276
2016-11-16T12:17:55.969Z,7360
2016-11-16T12:19:04.594Z,7188
2016-11-16T12:20:13.268Z,6624
2016-11-16T12:21:21.913Z,6248
2016-11-16T12:22:30.557Z,6356
2016-11-16T12:23:39.180Z,5720
2016-11-16T12:24:47.798Z,5592
2016-11-16T12:25:56.417Z,5528
2016-11-16T12:27:05.080Z,5448
2016-11-16T12:28:13.713Z,5152
2016-11-16T12:29:22.357Z,5332
2016-11-16T12:30:31.000Z,5464
2016-11-16T12:31:39.628Z,5008
2016-11-16T12:32:48.268Z,5420
2016-11-16T12:33:56.919Z,4772
2016-11-16T12:35:05.541Z,4736
2016-11-16T12:36:14.161Z,5144
2016-11-16T12:37:22.799Z,5236
2016-11-16T12:38:31.429Z,4896
2016-11-16T12:39:40.062Z,4784
2016-11-16T12:40:48.697Z,5448
2016-11-16T12:41:57.334Z,5404
2016-11-16T12:43:05.977Z,5308
2016-11-16T12:44:14.582Z,5012
2016-11-16T12:45:23.205Z,4076
2016-11-16T12:46:31.827Z,4020
2016-11-16T12:47:40.467Z,4172
2016-11-16T12:48:49.080Z,3612
2016-11-16T12:49:57.732Z,3224
2016-11-16T12:51:06.385Z,2956
2016-11-16T12:52:15.033Z,2684
2016-11-16T12:53:23.677Z,2508
2016-11-16T12:54:32.324Z,2644
2016-11-16T12:55:40.944Z,2540
2016-11-16T12:56:49.885Z,3020
2016-11-16T12:57:58.528Z,3400
2016-11-16T12:59:07.781Z,2788
2016-11-16T13:00:16.416Z,2376
2016-11-16T13:01:25.044Z,2148
2016-11-16T13:02:33.643Z,1768
2016-11-16T13:03:42.303Z,1684
2016-11-16T13:04:50.908Z,1448
2016-11-16T13:05:59.545Z,1156
2016-11-16T13:07:08.149Z,1076
2016-11-16T13:08:16.776Z,1040
2016-11-16T13:09:25.417Z,1020
2016-11-16T13:10:34.042Z,960
2016-11-16T13:11:42.677Z,1020
2016-11-16T13:12:51.306Z,936
2016-11-16T13:13:59.930Z,996
2016-11-16T13:15:08.594Z,912
2016-11-16T13:16:17.218Z,1056
2016-11-16T13:17:25.857Z,976
2016-11-16T13:18:34.486Z,1020
2016-11-16T13:19:43.111Z,1080
2016-11-16T13:20:51.749Z,1060
2016-11-16T13:22:00.399Z,968
2016-11-16T13:23:09.020Z,920
2016-11-16T13:24:17.650Z,924
2016-11-16T13:25:26.306Z,880
2016-11-16T13:26:35.234Z,888
2016-11-16T13:27:43.860Z,896
2016-11-16T13:28:52.501Z,856
2016-11-16T13:30:01.099Z,1004
2016-11-16T13:31:09.736Z,920
2016-11-16T13:32:18.665Z,976
2016-11-16T13:33:27.262Z,1088
2016-11-16T13:34:35.886Z,984
2016-11-16T13:35:44.545Z,1000
2016-11-16T13:36:53.174Z,1072
2016-11-16T13:38:01.776Z,1088
2016-11-16T13:39:10.422Z,976
2016-11-16T13:40:19.067Z,1000
2016-11-16T13:41:27.708Z,992
2016-11-16T13:42:36.331Z,1124
2016-11-16T13:43:44.951Z,1140
2016-11-16T13:44:53.589Z,952
2016-11-16T13:46:02.222Z,776
2016-11-16T13:47:10.864Z,844
2016-11-16T13:48:19.465Z,740
2016-11-16T13:49:28.130Z,672
2016-11-16T13:50:36.756Z,664
2016-11-16T13:51:45.378Z,648
2016-11-16T13:52:54.011Z,748
2016-11-16T13:54:02.933Z,712
2016-11-16T13:55:11.562Z,576
2016-11-16T13:56:20.158Z,560
2016-11-16T13:57:28.759Z,536
2016-11-16T13:58:37.396Z,436
2016-11-16T13:59:46.024Z,496
2016-11-16T14:00:54.659Z,444
2016-11-16T14:02:03.319Z,368
2016-11-16T14:03:11.959Z,380
2016-11-16T14:04:21.184Z,488
2016-11-16T14:05:29.822Z,596
2016-11-16T14:06:38.444Z,644
2016-11-16T14:07:47.368Z,592
2016-11-16T14:08:55.989Z,640
2016-11-16T14:10:04.632Z,548
2016-11-16T14:11:13.256Z,684
2016-11-16T14:12:21.894Z,620
2016-11-16T14:13:30.527Z,584
2016-11-16T14:14:39.145Z,636
2016-11-16T14:15:47.767Z,700
2016-11-16T14:16:56.411Z,752
2016-11-16T14:18:05.008Z,856
2016-11-16T14:19:14.356Z,840
2016-11-16T14:20:23.005Z,816
2016-11-16T14:21:31.642Z,772
2016-11-16T14:22:40.271Z,716
2016-11-16T14:23:48.911Z,684
2016-11-16T14:24:57.526Z,696
2016-11-16T14:26:06.184Z,544
2016-11-16T14:27:14.806Z,484
2016-11-16T14:28:23.449Z,564
2016-11-16T14:29:32.369Z,728
2016-11-16T14:30:41.006Z,840
2016-11-16T14:31:49.635Z,712
2016-11-16T14:32:58.279Z,640
2016-11-16T14:34:06.899Z,436
2016-11-16T14:35:15.542Z,428
2016-11-16T14:36:24.151Z,460
2016-11-16T14:37:32.784Z,352
2016-11-16T14:38:41.408Z,352
2016-11-16T14:39:50.025Z,376
2016-11-16T14:40:58.658Z,324
2016-11-16T14:42:07.278Z,316
2016-11-16T14:43:15.897Z,300
2016-11-16T14:44:24.524Z,268
2016-11-16T14:45:33.169Z,288
2016-11-16T14:46:41.814Z,256
2016-11-16T14:47:50.438Z,188
2016-11-16T14:48:59.080Z,200
2016-11-16T14:50:07.697Z,180
2016-11-16T14:51:16.319Z,156
2016-11-16T14:52:24.944Z,144
2016-11-16T14:53:33.611Z,128
2016-11-16T14:54:42.232Z,120
2016-11-16T14:55:50.883Z,120
2016-11-16T14:56:59.524Z,132
2016-11-16T14:58:08.169Z,112
2016-11-16T14:59:16.792Z,96
2016-11-16T15:00:25.418Z,100
2016-11-16T15:01:34.062Z,112
2016-11-16T15:02:42.690Z,88
2016-11-16T15:03:51.330Z,88
2016-11-16T15:04:59.993Z,72
2016-11-16T15:06:08.665Z,76
2016-11-16T15:07:17.289Z,60
2016-11-16T15:08:25.915Z,44
2016-11-16T15:09:34.531Z,48
2016-11-16T15:10:43.155Z,60
2016-11-16T15:11:51.770Z,88
2016-11-16T15:13:00.396Z,84
2016-11-16T15:14:09.019Z,76
2016-11-16T15:15:17.662Z,56
2016-11-16T15:16:26.288Z,40
2016-11-16T15:17:34.911Z,28
2016-11-16T15:18:43.539Z,24
2016-11-16T15:19:52.173Z,20
2016-11-16T15:21:00.792Z,20
2016-11-16T15:22:09.416Z,20
2016-11-16T15:23:18.041Z,20
2016-11-16T15:24:26.656Z,28
2016-11-16T15:25:35.324Z,20
2016-11-16T15:26:43.973Z,20
2016-11-16T15:27:52.598Z,12
2016-11-16T15:29:01.216Z,12
2016-11-16T15:30:09.843Z,12
2016-11-16T15:31:18.500Z,8
2016-11-16T15:32:27.129Z,8
2016-11-16T15:33:35.751Z,4
2016-11-16T15:34:44.402Z,8
2016-11-16T15:35:53.026Z,4
2016-11-16T15:37:01.668Z,4
2016-11-16T15:38:10.310Z,4
2016-11-16T15:39:18.928Z,4
2016-11-16T15:40:27.556Z,4
2016-11-16T15:41:36.178Z,4
2016-11-16T15:42:44.824Z,0
2016-11-16T15:43:53.440Z,0
2016-11-16T15:45:02.079Z,0
2016-11-16T15:46:10.704Z,0
2016-11-16T15:47:19.333Z,0
2016-11-16T15:48:27.974Z,0
2016-11-16T15:49:36.595Z,0
2016-11-16T15:50:45.220Z,0
2016-11-16T15:51:53.829Z,0
2016-11-16T15:53:02.463Z,0
2016-11-16T15:54:11.111Z,0
2016-11-16T15:55:19.775Z,0
2016-11-16T15:56:28.721Z,0
2016-11-16T15:57:37.343Z,0
2016-11-16T15:58:45.968Z,0
2016-11-16T15:59:54.585Z,0